Time;durP1;ratioP1;P1;durP2;ratioP2;P2;SDS_P1;SDS_P2;PMS_P1;PMS_P2;Temp;Humidity;BMP_temperature;BMP_pressure;BME280_temperature;BME280_humidity;BME280_pressure;Samples;Min_cycle;Max_cycle;Signal;HPM_P1;HPM_P2
2023/10/19 00:01:58;;;;;;;6.05;3.90;;;;;;;21.86;50.63;100531.06;4991415;28;20061;-61
2023/10/19 00:04:26;;;;;;;5.40;4.13;;;;;;;21.86;50.60;100514.91;4991330;28;20485;-61
2023/10/19 00:06:53;;;;;;;4.70;3.70;;;;;;;21.86;50.67;100528.38;4991490;28;20053;-61
2023/10/19 00:09:20;;;;;;;6.30;3.90;;;;;;;21.85;50.66;100542.88;4992507;28;20050;-62
2023/10/19 00:11:51;;;;;;;5.43;4.20;;;;;;;21.85;50.70;100529.38;4991944;28;20501;-62
2023/10/19 00:14:19;;;;;;;5.38;3.97;;;;;;;21.86;50.60;100503.28;4992978;28;20413;-62
2023/10/19 00:17:00;;;;;;;4.95;4.10;;;;;;;21.86;50.70;100479.03;4990260;28;20050;-62
2023/10/19 00:19:28;;;;;;;6.05;4.68;;;;;;;21.84;50.66;100495.38;4992367;28;20490;-62
2023/10/19 00:22:01;;;;;;;5.57;3.60;;;;;;;21.84;50.74;100486.44;4991419;28;20421;-62
2023/10/19 00:24:31;;;;;;;4.53;3.88;;;;;;;21.84;50.70;100479.19;4990809;28;20378;-62
2023/10/19 00:27:05;;;;;;;5.53;3.65;;;;;;;21.84;50.83;100483.75;4980534;28;20049;-62
2023/10/19 00:29:39;;;;;;;4.30;3.08;;;;;;;21.84;50.82;100489.13;4991394;28;20061;-61
2023/10/19 00:32:13;;;;;;;5.32;4.00;;;;;;;21.83;50.77;100479.34;4990794;28;20077;-61
2023/10/19 00:34:46;;;;;;;5.63;4.35;;;;;;;21.83;50.79;100482.88;4994349;28;20390;-61
2023/10/19 00:37:19;;;;;;;5.50;4.00;;;;;;;21.83;50.93;100498.19;5019535;28;20062;-61
2023/10/19 00:39:54;;;;;;;5.32;3.55;;;;;;;21.82;50.87;100508.13;4990796;28;20069;-62
2023/10/19 00:42:30;;;;;;;7.20;4.07;;;;;;;21.83;50.86;100503.59;4994739;28;20063;-62
2023/10/19 00:45:05;;;;;;;5.28;4.13;;;;;;;21.82;50.83;100512.69;4990586;28;20497;-62
2023/10/19 00:47:39;;;;;;;5.53;4.05;;;;;;;21.83;50.89;100503.59;4991227;28;20643;-62
2023/10/19 00:50:16;;;;;;;5.22;4.05;;;;;;;21.82;50.93;100489.28;4992166;28;20058;-60
2023/10/19 00:52:49;;;;;;;5.00;3.90;;;;;;;21.82;50.88;100480.34;4994658;28;20065;-61
2023/10/19 00:55:21;;;;;;;5.50;3.30;;;;;;;21.81;50.90;100447.16;4995158;28;20049;-61
2023/10/19 00:57:49;;;;;;;4.45;3.30;;;;;;;21.81;50.92;100438.25;4994408;28;20042;-61
2023/10/19 01:00:34;;;;;;;4.68;3.45;;;;;;;21.81;50.94;100435.53;4994153;28;20054;-62
2023/10/19 01:03:04;;;;;;;5.70;3.67;;;;;;;21.80;50.96;100445.47;4995946;28;20065;-62
2023/10/19 01:05:35;;;;;;;4.80;3.50;;;;;;;21.79;50.93;100443.78;4994852;28;20050;-62
2023/10/19 01:10:53;;;;;;;4.43;3.58;;;;;;;21.79;51.00;100407.91;4994007;28;20061;-61
2023/10/19 01:13:26;;;;;;;5.32;3.92;;;;;;;21.78;50.97;100390.06;4995260;28;20042;-61
2023/10/19 01:15:55;;;;;;;4.78;3.40;;;;;;;21.79;51.05;100402.50;5011423;28;20401;-61
2023/10/19 01:18:29;;;;;;;6.35;3.38;;;;;;;21.79;51.01;100399.81;4990638;28;20047;-61
2023/10/19 01:20:56;;;;;;;4.85;3.40;;;;;;;21.78;51.16;100398.97;4987372;28;20073;-62
2023/10/19 01:23:28;;;;;;;4.63;3.55;;;;;;;21.78;51.08;100390.06;4990471;28;20055;-62
2023/10/19 01:31:30;;;;;;;4.88;3.47;;;;;;;21.80;51.23;100393.44;4994189;28;20061;-61
2023/10/19 01:34:06;;;;;;;4.78;3.20;;;;;;;21.78;51.13;100376.56;4982178;28;20401;-61
2023/10/19 01:36:43;;;;;;;4.82;3.30;;;;;;;21.79;51.14;100372.88;4989877;28;20055;-61
2023/10/19 01:39:11;;;;;;;5.03;3.88;;;;;;;21.78;51.05;100355.03;4989119;28;20058;-61
2023/10/19 01:41:41;;;;;;;4.05;3.10;;;;;;;21.79;51.09;100356.69;4994690;28;20047;-62
2023/10/19 01:44:13;;;;;;;4.18;3.30;;;;;;;21.78;51.10;100363.94;4994664;28;20045;-62
2023/10/19 01:46:45;;;;;;;5.72;3.45;;;;;;;21.77;51.18;100375.72;4990371;28;20066;-62
2023/10/19 01:49:13;;;;;;;6.70;3.13;;;;;;;21.76;51.47;100379.44;4992755;28;20054;-61
2023/10/19 01:51:43;;;;;;;5.13;3.45;;;;;;;21.77;51.24;100364.97;4995303;28;20073;-61
2023/10/19 01:54:11;;;;;;;5.55;3.40;;;;;;;21.77;51.10;100356.03;4993931;28;20042;-61
2023/10/19 01:56:39;;;;;;;5.20;3.47;;;;;;;21.76;51.14;100351.66;4990828;28;20065;-61
2023/10/19 01:59:09;;;;;;;4.63;3.65;;;;;;;21.76;51.21;100348.97;4992436;28;20055;-62
2023/10/19 02:01:37;;;;;;;5.28;3.38;;;;;;;21.75;51.36;100323.84;4994028;28;20145;-62
2023/10/19 02:04:08;;;;;;;5.38;3.00;;;;;;;21.77;51.14;100321.00;4994306;28;20046;-62
2023/10/19 02:06:40;;;;;;;3.92;3.28;;;;;;;21.76;51.25;100322.03;4989885;28;20387;-62
2023/10/19 02:11:47;;;;;;;4.68;3.50;;;;;;;21.74;51.14;100338.31;4994474;28;20050;-61
2023/10/19 02:14:20;;;;;;;3.88;2.83;;;;;;;21.75;51.15;100336.47;4992949;28;20055;-61
2023/10/19 02:16:51;;;;;;;4.63;3.28;;;;;;;21.74;51.13;100319.47;4991668;28;20050;-61
2023/10/19 02:19:20;;;;;;;4.85;3.63;;;;;;;21.73;51.08;100310.53;4993843;28;20516;-62
2023/10/19 02:21:58;;;;;;;5.00;3.67;;;;;;;21.72;51.18;100316.94;4992603;28;20054;-62
2023/10/19 02:24:26;;;;;;;4.30;3.10;;;;;;;21.72;51.09;100322.34;4992207;28;20053;-62
2023/10/19 02:26:56;;;;;;;5.57;3.38;;;;;;;21.72;51.18;100313.41;4993124;28;20072;-62
2023/10/19 02:29:24;;;;;;;5.63;3.85;;;;;;;21.72;51.27;100313.41;4992750;28;20130;-61
2023/10/19 02:31:53;;;;;;;5.82;3.10;;;;;;;21.71;51.17;100295.53;4992697;28;20051;-62
2023/10/19 02:34:22;;;;;;;4.20;3.10;;;;;;;21.71;51.13;100288.31;4991636;28;20050;-62
2023/10/19 02:36:50;;;;;;;4.60;3.08;;;;;;;21.70;51.20;100289.31;4978749;28;20050;-62
2023/10/19 02:39:18;;;;;;;4.95;3.38;;;;;;;21.70;51.12;100293.84;4992729;28;20050;-61
2023/10/19 02:41:47;;;;;;;4.63;3.15;;;;;;;21.70;51.22;100310.00;4979911;28;20065;-61
2023/10/19 02:46:44;;;;;;;4.20;3.25;;;;;;;21.69;51.19;100319.09;4992442;28;20046;-61
2023/10/19 02:49:17;;;;;;;4.35;3.33;;;;;;;21.70;51.22;100302.78;4992347;28;20046;-61
2023/10/19 02:51:46;;;;;;;4.40;3.15;;;;;;;21.69;51.16;100309.19;4992528;28;20058;-61
2023/10/19 02:54:24;;;;;;;4.47;3.35;;;;;;;21.70;51.13;100285.78;4991319;28;20050;-61
2023/10/19 02:56:56;;;;;;;5.03;3.65;;;;;;;21.68;51.17;100261.69;4991431;28;20054;-61
2023/10/19 02:59:25;;;;;;;5.95;3.40;;;;;;;21.67;51.17;100261.84;4992407;28;20058;-61
2023/10/19 03:02:06;;;;;;;3.78;3.08;;;;;;;21.69;51.21;100265.22;4991539;28;20047;-61
2023/10/19 03:04:37;;;;;;;5.68;3.35;;;;;;;21.68;51.25;100247.38;4979412;28;20046;-61
2023/10/19 03:07:07;;;;;;;4.28;3.15;;;;;;;21.68;51.20;100252.78;4990930;28;20050;-61
2023/10/19 03:09:57;;;;;;;6.00;3.30;;;;;;;21.67;51.20;100267.22;4989848;28;20038;-61
2023/10/19 03:12:26;;;;;;;4.15;2.92;;;;;;;21.66;51.16;100274.47;4980223;28;20054;-61
2023/10/19 03:14:54;;;;;;;4.88;3.13;;;;;;;21.67;51.30;100275.31;4992092;28;20050;-61
2023/10/19 03:17:21;;;;;;;4.28;2.88;;;;;;;21.66;51.27;100242.13;4992317;28;20050;-61
2023/10/19 03:19:49;;;;;;;5.15;3.22;;;;;;;21.67;51.23;100245.66;4991759;28;20055;-61
2023/10/19 03:22:17;;;;;;;4.38;2.70;;;;;;;21.66;51.23;100250.22;4992043;28;20053;-60
2023/10/19 03:24:45;;;;;;;4.63;3.13;;;;;;;21.66;51.27;100241.31;4991794;28;20057;-60
2023/10/19 03:27:21;;;;;;;3.80;2.88;;;;;;;21.65;51.23;100237.75;4992349;28;20501;-61
2023/10/19 03:29:55;;;;;;;4.60;3.30;;;;;;;21.65;51.25;100243.16;4976306;28;20061;-62
2023/10/19 03:32:28;;;;;;;4.75;3.15;;;;;;;21.66;51.12;100238.59;4992322;28;20054;-62
2023/10/19 03:34:56;;;;;;;3.95;3.05;;;;;;;21.65;51.28;100258.47;4993001;28;20046;-62
2023/10/19 03:37:28;;;;;;;3.75;2.85;;;;;;;21.65;51.23;100258.47;4991644;28;20069;-62
2023/10/19 03:39:56;;;;;;;6.40;3.20;;;;;;;21.65;51.23;100258.47;4992250;28;20050;-62
2023/10/19 03:42:40;;;;;;;4.50;2.90;;;;;;;21.64;51.32;100225.31;4992132;28;20050;-62
2023/10/19 03:45:13;;;;;;;4.00;2.72;;;;;;;21.64;51.36;100222.63;4988767;28;20051;-62
2023/10/19 03:47:43;;;;;;;3.58;2.60;;;;;;;21.64;51.64;100216.38;4994071;28;20065;-62
2023/10/19 03:50:15;;;;;;;4.35;2.92;;;;;;;21.63;51.33;100218.25;4992275;28;20053;-61
2023/10/19 03:52:42;;;;;;;4.03;2.72;;;;;;;21.63;51.42;100199.38;4992615;28;20046;-61
2023/10/19 03:55:18;;;;;;;3.95;2.65;;;;;;;21.63;51.46;100218.25;4990553;28;20053;-61
2023/10/19 03:57:55;;;;;;;4.60;2.65;;;;;;;21.63;51.44;100220.94;4992091;28;20408;-61
2023/10/19 04:00:28;;;;;;;4.25;2.95;;;;;;;21.62;51.59;100218.38;4991984;28;20509;-62
2023/10/19 04:02:58;;;;;;;5.05;2.40;;;;;;;21.64;51.35;100221.78;4994766;28;20050;-62
2023/10/19 04:05:28;;;;;;;4.10;2.50;;;;;;;21.63;51.60;100211.97;4995957;28;20098;-61
2023/10/19 04:07:57;;;;;;;5.15;3.63;;;;;;;21.62;51.62;100208.44;4995536;28;20053;-61
2023/10/19 04:13:02;;;;;;;4.22;2.30;;;;;;;21.61;51.36;100220.22;4995127;28;20061;-62
2023/10/19 04:15:33;;;;;;;4.18;2.70;;;;;;;21.62;51.39;100231.84;4996195;28;20042;-61
2023/10/19 04:18:10;;;;;;;4.22;2.80;;;;;;;21.61;51.47;100209.47;4996117;28;20053;-62
2023/10/19 04:20:54;;;;;;;3.50;2.20;;;;;;;21.62;51.35;100213.00;4995394;28;20054;-61
2023/10/19 04:23:25;;;;;;;3.92;2.75;;;;;;;21.62;51.37;100210.31;4995971;28;20051;-61
2023/10/19 04:25:58;;;;;;;4.00;2.63;;;;;;;21.61;51.09;100208.63;4995801;28;20053;-61
2023/10/19 04:28:38;;;;;;;4.18;2.72;;;;;;;21.61;51.16;100195.16;4994976;28;20050;-61
2023/10/19 04:31:08;;;;;;;3.50;2.50;;;;;;;21.60;51.30;100180.84;4996036;28;20046;-61
2023/10/19 04:33:36;;;;;;;4.40;2.53;;;;;;;21.60;51.27;100178.16;4996141;28;20343;-61
2023/10/19 04:36:05;;;;;;;3.25;2.20;;;;;;;21.60;51.37;100191.63;4995480;28;20042;-61
2023/10/19 04:38:33;;;;;;;3.60;2.30;;;;;;;21.61;51.35;100193.31;4995236;28;20135;-61
2023/10/19 04:41:08;;;;;;;4.18;2.65;;;;;;;21.60;51.38;100186.22;4994106;28;20046;-61
2023/10/19 04:43:37;;;;;;;3.17;2.38;;;;;;;21.60;51.33;100180.00;4995365;28;20046;-61
2023/10/19 04:46:08;;;;;;;3.47;2.10;;;;;;;21.60;51.32;100174.63;4995258;28;20046;-61
2023/10/19 04:48:39;;;;;;;3.83;2.40;;;;;;;21.59;51.35;100163.00;4995785;28;20057;-61
2023/10/19 04:51:09;;;;;;;4.68;2.45;;;;;;;21.59;51.38;100168.41;4995267;28;20050;-62
2023/10/19 04:53:37;;;;;;;4.55;2.42;;;;;;;21.58;51.41;100172.06;4994755;28;20069;-62
2023/10/19 04:56:08;;;;;;;4.47;2.60;;;;;;;21.58;51.35;100182.84;4994880;28;20049;-61
2023/10/19 04:58:36;;;;;;;4.10;2.55;;;;;;;21.58;51.38;100169.38;4995469;28;20050;-62
2023/10/19 05:01:05;;;;;;;3.83;1.98;;;;;;;21.59;51.43;100160.31;4995164;28;20042;-61
2023/10/19 05:03:32;;;;;;;3.90;2.10;;;;;;;21.58;51.38;100153.22;4995421;28;20046;-61
2023/10/19 05:06:01;;;;;;;2.95;2.15;;;;;;;21.58;51.47;100144.28;4994405;28;20500;-61
2023/10/19 05:08:29;;;;;;;3.22;2.28;;;;;;;21.57;51.44;100154.22;4995493;28;20058;-61
2023/10/19 05:10:59;;;;;;;4.20;2.55;;;;;;;21.58;51.60;100150.53;4992060;28;20054;-61
2023/10/19 05:13:26;;;;;;;4.03;2.10;;;;;;;21.58;51.45;100149.69;4994804;28;20053;-61
2023/10/19 05:15:54;;;;;;;3.08;1.95;;;;;;;21.57;51.37;100137.22;4992731;28;20046;-61
2023/10/19 05:18:22;;;;;;;3.42;2.05;;;;;;;21.57;51.25;100132.69;4976824;28;20386;-61
2023/10/19 05:20:55;;;;;;;2.95;2.05;;;;;;;21.57;51.37;100129.16;4977092;28;20517;-61
2023/10/19 05:23:23;;;;;;;3.10;1.90;;;;;;;21.56;51.24;100138.25;4977089;28;20489;-61
2023/10/19 05:25:53;;;;;;;2.88;1.85;;;;;;;21.57;51.43;100139.91;4977127;28;20054;-62
2023/10/19 05:28:21;;;;;;;3.05;1.83;;;;;;;21.56;51.35;100135.56;4982670;28;20054;-62
2023/10/19 05:30:50;;;;;;;3.33;2.10;;;;;;;21.56;51.44;100141.78;4983598;28;20192;-62
2023/10/19 05:33:20;;;;;;;4.57;2.45;;;;;;;21.56;51.41;100133.69;4977092;28;20049;-62
2023/10/19 05:35:48;;;;;;;3.00;2.20;;;;;;;21.54;51.44;100133.00;4991660;28;20047;-62
2023/10/19 05:38:16;;;;;;;3.85;1.92;;;;;;;21.55;51.56;100125.75;4976688;28;20054;-62
2023/10/19 05:40:43;;;;;;;3.10;2.00;;;;;;;21.55;51.64;100123.91;4976405;28;20058;-62
2023/10/19 05:43:11;;;;;;;2.50;1.70;;;;;;;21.54;51.74;100119.53;4977597;28;20109;-62
2023/10/19 05:45:39;;;;;;;3.80;1.92;;;;;;;21.54;51.18;100116.84;4976234;28;20051;-62
2023/10/19 05:48:08;;;;;;;3.35;1.85;;;;;;;21.54;51.59;100121.38;4976269;28;20054;-62
2023/10/19 05:50:36;;;;;;;3.13;2.10;;;;;;;21.54;51.58;100122.22;4976865;28;20046;-61
2023/10/19 05:53:05;;;;;;;2.97;1.80;;;;;;;21.54;51.76;100113.31;4976838;28;20047;-61
2023/10/19 05:55:33;;;;;;;3.45;1.88;;;;;;;21.54;51.88;100132.16;4976291;28;20497;-61
2023/10/19 05:58:04;;;;;;;2.70;1.63;;;;;;;21.54;51.80;100142.94;4976458;28;20047;-61
2023/10/19 06:00:31;;;;;;;2.53;1.63;;;;;;;21.53;51.86;100134.00;4976038;28;20070;-62
2023/10/19 06:02:59;;;;;;;3.70;1.70;;;;;;;21.54;51.98;100142.94;4976903;28;20055;-62
2023/10/19 06:05:27;;;;;;;2.58;1.77;;;;;;;21.54;51.91;100142.94;4975813;28;20047;-62
2023/10/19 06:07:55;;;;;;;3.10;1.80;;;;;;;21.54;52.03;100133.00;4975719;28;20057;-62
2023/10/19 06:10:22;;;;;;;2.60;1.70;;;;;;;21.54;51.75;100118.69;4975758;28;20051;-61
2023/10/19 06:12:51;;;;;;;2.95;1.52;;;;;;;21.53;51.86;100120.56;4991948;28;20122;-61
2023/10/19 06:15:22;;;;;;;3.47;1.90;;;;;;;21.53;51.83;100119.72;4988648;28;20072;-61
2023/10/19 06:17:49;;;;;;;2.92;1.90;;;;;;;21.53;51.63;100141.25;4975978;28;20042;-60
2023/10/19 06:20:23;;;;;;;3.33;2.20;;;;;;;21.52;51.70;100132.34;4976952;28;20051;-62
2023/10/19 06:22:55;;;;;;;5.32;2.35;;;;;;;21.53;51.98;100143.94;4991106;28;20065;-62
2023/10/19 06:25:24;;;;;;;3.75;2.25;;;;;;;21.52;51.87;100140.41;4975532;28;20051;-60
2023/10/19 06:27:56;;;;;;;3.35;1.85;;;;;;;21.53;51.77;100143.94;4976240;28;20046;-60
2023/10/19 06:30:26;;;;;;;3.35;1.95;;;;;;;21.53;51.92;100143.94;4976651;28;20050;-62
2023/10/19 06:33:02;;;;;;;3.65;2.42;;;;;;;21.51;51.75;100133.31;4976016;28;20054;-62
2023/10/19 06:35:36;;;;;;;3.15;1.88;;;;;;;21.51;51.76;100124.41;4975735;28;20054;-62
2023/10/19 06:38:03;;;;;;;3.67;2.40;;;;;;;21.51;51.86;100124.41;4975768;28;20077;-61
2023/10/19 06:40:34;;;;;;;3.75;2.10;;;;;;;21.51;51.84;100129.78;4976103;28;20050;-62
2023/10/19 06:43:05;;;;;;;3.35;2.20;;;;;;;21.50;51.81;100120.88;4975485;28;20062;-62
2023/10/19 06:45:33;;;;;;;3.72;2.38;;;;;;;21.50;51.82;100106.56;4980281;28;20512;-62
2023/10/19 06:48:01;;;;;;;3.15;2.03;;;;;;;21.50;51.70;100120.03;4975895;28;20047;-62
2023/10/19 06:50:29;;;;;;;3.70;2.60;;;;;;;21.49;51.65;100124.56;4975753;28;20050;-62
2023/10/19 06:52:56;;;;;;;3.35;2.22;;;;;;;21.50;51.75;100123.56;4975501;28;20051;-61
2023/10/19 06:55:23;;;;;;;6.80;4.97;;;;;;;21.43;51.78;100127.91;4974954;28;20050;-60
2023/10/19 06:57:53;;;;;;;5.90;4.78;;;;;;;21.34;51.68;100118.13;4976385;28;20047;-61
2023/10/19 07:00:22;;;;;;;8.95;7.32;;;;;;;21.23;51.58;100120.06;4989465;28;20062;-61
2023/10/19 07:02:51;;;;;;;10.15;8.07;;;;;;;21.12;51.60;100125.72;4974853;28;20405;-61
2023/10/19 07:05:23;;;;;;;10.23;8.25;;;;;;;21.03;51.59;100125.88;4982954;28;20054;-62
2023/10/19 07:07:54;;;;;;;9.70;8.02;;;;;;;20.94;51.79;100119.56;4975461;28;20042;-61
2023/10/19 07:10:23;;;;;;;10.07;8.25;;;;;;;20.91;51.81;100103.78;4999417;28;20047;-58
2023/10/19 07:12:55;;;;;;;10.15;8.18;;;;;;;20.87;52.04;100102.41;4996246;28;20069;-58
2023/10/19 07:15:23;;;;;;;13.75;11.02;;;;;;;20.83;51.98;100093.81;4990015;28;20049;-55
2023/10/19 07:17:54;;;;;;;10.45;8.25;;;;;;;20.84;51.95;100106.25;4986768;28;20046;-56
2023/10/19 07:20:25;;;;;;;10.65;8.30;;;;;;;20.87;52.11;100107.78;4974963;28;20046;-55
2023/10/19 07:23:02;;;;;;;12.05;10.02;;;;;;;20.90;51.91;100111.00;4977738;28;20050;-52
2023/10/19 07:25:31;;;;;;;11.45;9.13;;;;;;;20.93;52.07;100112.50;4976603;28;20050;-51
2023/10/19 07:27:59;;;;;;;12.52;10.32;;;;;;;20.95;51.88;100094.38;4984641;28;20039;-53
2023/10/19 07:30:27;;;;;;;12.20;10.25;;;;;;;20.96;52.00;100096.88;4975915;28;20054;-62
2023/10/19 07:32:58;;;;;;;10.95;8.68;;;;;;;20.98;51.79;100083.25;4980291;28;20043;-56
2023/10/19 07:35:27;;;;;;;12.07;8.65;;;;;;;21.03;51.68;100080.97;4978008;28;20414;-57
2023/10/19 07:37:56;;;;;;;11.68;9.35;;;;;;;21.04;51.60;100106.00;4986577;28;20495;-57
2023/10/19 07:40:24;;;;;;;11.00;9.38;;;;;;;21.04;51.67;100108.72;4978926;28;20165;-57
2023/10/19 07:42:54;;;;;;;11.60;9.82;;;;;;;21.06;51.61;100087.84;5005441;28;20416;-57
2023/10/19 07:45:22;;;;;;;12.95;10.48;;;;;;;21.06;51.63;100083.31;4993393;28;20051;-57
2023/10/19 07:47:50;;;;;;;15.60;11.35;;;;;;;21.06;51.29;100071.69;4984268;28;20098;-56
2023/10/19 07:50:19;;;;;;;13.45;10.63;;;;;;;21.07;51.17;100085.00;4983995;28;20049;-60
2023/10/19 07:52:50;;;;;;;14.48;11.77;;;;;;;21.07;51.21;100076.94;4994835;28;20050;-60
2023/10/19 07:55:18;;;;;;;16.10;12.75;;;;;;;21.05;51.30;100070.84;4978876;28;20057;-61
2023/10/19 07:57:50;;;;;;;15.02;12.13;;;;;;;21.03;51.29;100091.72;4981543;28;20047;-62
2023/10/19 08:00:19;;;;;;;15.98;12.82;;;;;;;21.02;51.18;100084.63;4978453;28;20517;-49
2023/10/19 08:02:47;;;;;;;16.00;12.65;;;;;;;21.00;51.29;100100.09;4981915;28;20050;-56
2023/10/19 08:05:19;;;;;;;15.23;12.68;;;;;;;20.99;51.45;100096.56;4978193;28;20051;-56
2023/10/19 08:07:47;;;;;;;13.45;10.50;;;;;;;20.99;51.40;100101.97;4987345;28;20146;-55
2023/10/19 08:10:16;;;;;;;16.83;13.30;;;;;;;20.99;51.45;100087.66;4978651;28;20397;-53
2023/10/19 08:12:47;;;;;;;18.48;13.85;;;;;;;20.97;51.49;100086.97;4979891;28;20043;-53
2023/10/19 08:15:16;;;;;;;17.90;13.73;;;;;;;20.96;51.58;100096.06;4995202;28;20509;-58
2023/10/19 08:17:47;;;;;;;18.33;14.88;;;;;;;20.92;51.72;100100.06;4987401;28;20101;-53
2023/10/19 08:20:24;;;;;;;17.58;14.10;;;;;;;20.90;51.73;100092.16;4985959;28;20409;-61
2023/10/19 08:22:58;;;;;;;17.98;13.65;;;;;;;20.91;51.82;100076.84;4979303;28;20061;-60
2023/10/19 08:25:29;;;;;;;16.52;13.52;;;;;;;20.91;51.75;100071.47;4978286;28;20057;-60
2023/10/19 08:28:17;;;;;;;17.83;12.98;;;;;;;20.89;51.76;100073.47;4978568;28;20054;-60
2023/10/19 08:30:56;;;;;;;17.58;14.07;;;;;;;20.89;51.69;100074.31;4980051;28;20094;-61
2023/10/19 08:33:25;;;;;;;18.38;14.07;;;;;;;20.87;51.81;100070.13;4987802;28;20489;-60
2023/10/19 08:35:54;;;;;;;18.38;15.00;;;;;;;20.86;51.87;100066.56;4980012;28;20054;-61
2023/10/19 08:38:25;;;;;;;19.05;14.93;;;;;;;20.85;51.98;100061.34;4981099;28;20043;-61
2023/10/19 08:40:53;;;;;;;17.67;15.10;;;;;;;20.84;52.00;100049.75;4980100;28;20051;-62
2023/10/19 08:43:21;;;;;;;19.40;15.00;;;;;;;20.84;51.89;100032.75;4986162;28;20054;-58
2023/10/19 08:45:49;;;;;;;19.35;15.02;;;;;;;20.84;51.82;100032.75;4978963;28;20055;-58
2023/10/19 08:48:17;;;;;;;18.95;15.27;;;;;;;20.83;52.05;100052.59;4979633;28;20042;-58
2023/10/19 08:50:46;;;;;;;22.27;17.05;;;;;;;20.83;52.04;100052.59;4977750;28;20051;-55
2023/10/19 08:53:14;;;;;;;19.50;15.32;;;;;;;20.81;51.97;100057.28;4994788;28;20065;-55
2023/10/19 08:55:43;;;;;;;21.45;16.25;;;;;;;20.80;52.13;100061.84;4981863;28;20047;-56
2023/10/19 08:58:17;;;;;;;20.92;16.17;;;;;;;20.80;52.29;100042.16;4979118;28;20046;-61
2023/10/19 09:00:48;;;;;;;22.23;16.35;;;;;;;20.80;52.38;100052.91;4981183;28;20051;-60
2023/10/19 09:03:17;;;;;;;21.70;16.95;;;;;;;20.80;52.36;100047.53;4977322;28;20046;-59
2023/10/19 09:05:46;;;;;;;19.63;16.55;;;;;;;20.80;52.58;100048.38;4992999;28;20401;-61
2023/10/19 09:08:19;;;;;;;18.70;14.02;;;;;;;20.81;52.42;100055.44;4991311;28;20045;-57
2023/10/19 09:10:49;;;;;;;18.17;15.32;;;;;;;20.83;52.52;100047.22;4986926;28;20057;-57
2023/10/19 09:13:18;;;;;;;22.20;14.85;;;;;;;20.83;52.34;100049.91;4990443;28;20054;-63
2023/10/19 09:15:48;;;;;;;19.35;14.63;;;;;;;20.81;52.47;100033.91;4993908;28;20046;-56
2023/10/19 09:18:22;;;;;;;21.27;16.17;;;;;;;20.80;52.59;100005.34;4989831;28;20050;-56
2023/10/19 09:20:52;;;;;;;20.13;15.75;;;;;;;20.79;52.59;100009.03;4985120;28;20070;-59
2023/10/19 09:23:21;;;;;;;19.85;15.48;;;;;;;20.78;52.49;100001.13;4976547;28;20058;-58
2023/10/19 09:25:52;;;;;;;21.13;15.82;;;;;;;20.66;52.62;100025.63;4978466;28;20046;-51
2023/10/19 09:28:21;;;;;;;18.50;15.25;;;;;;;20.65;52.57;100023.06;4977524;28;20050;-55
2023/10/19 09:30:50;;;;;;;16.20;13.65;;;;;;;20.68;52.47;100007.47;4982690;28;20054;-55
2023/10/19 09:33:17;;;;;;;15.23;12.75;;;;;;;20.75;52.40;100015.75;4978386;28;20414;-55
2023/10/19 09:35:50;;;;;;;13.05;11.13;;;;;;;20.81;52.50;100004.31;4990191;28;20043;-56
2023/10/19 09:38:27;;;;;;;13.60;11.55;;;;;;;20.86;52.40;100017.28;4985045;28;20416;-57
2023/10/19 09:40:56;;;;;;;12.25;10.65;;;;;;;20.91;52.53;100028.44;4981473;28;20386;-59
2023/10/19 09:43:44;;;;;;;12.32;10.32;;;;;;;20.96;52.48;100005.41;4979141;28;20057;-60
2023/10/19 09:46:18;;;;;;;12.68;9.82;;;;;;;20.98;52.42;99987.25;4977861;28;20394;-59
2023/10/19 09:48:47;;;;;;;13.75;10.88;;;;;;;21.03;52.32;99997.53;4978064;28;20050;-60
2023/10/19 09:51:17;;;;;;;14.43;11.73;;;;;;;21.01;52.28;99980.69;4979159;28;20042;-56
2023/10/19 09:53:51;;;;;;;13.25;10.80;;;;;;;21.00;52.42;99949.41;4978939;28;20053;-56
2023/10/19 09:56:30;;;;;;;12.43;10.23;;;;;;;20.98;52.61;99940.66;4983846;28;20482;-56
2023/10/19 09:59:04;;;;;;;12.30;9.82;;;;;;;20.98;52.42;99946.91;4978796;28;20047;-60
2023/10/19 10:02:13;;;;;;;12.75;9.40;;;;;;;20.98;52.53;99967.56;4977000;28;20051;-56
2023/10/19 10:04:45;;;;;;;11.52;9.88;;;;;;;20.98;52.57;99967.56;4984683;28;20485;-56
2023/10/19 10:07:13;;;;;;;11.65;9.15;;;;;;;20.98;52.29;99973.81;4977153;28;20050;-56
2023/10/19 10:09:48;;;;;;;12.77;9.82;;;;;;;21.00;52.75;99989.78;4992792;28;20064;-61
2023/10/19 10:12:27;;;;;;;13.60;9.80;;;;;;;21.04;52.31;99975.00;4987506;28;20043;-58
2023/10/19 10:14:58;;;;;;;11.45;9.57;;;;;;;21.06;52.31;99978.34;4984487;28;20053;-61
2023/10/19 10:17:28;;;;;;;11.43;9.32;;;;;;;21.08;52.37;99970.97;4992720;28;20047;-63
2023/10/19 10:20:17;;;;;;;11.82;9.23;;;;;;;21.11;52.22;99965.25;4991111;28;20061;-55
2023/10/19 10:23:05;;;;;;;12.52;9.00;;;;;;;21.13;52.22;99973.16;4979371;28;21049;-60
2023/10/19 10:25:34;;;;;;;10.50;8.65;;;;;;;21.12;52.14;99950.78;4979489;28;20047;-60
2023/10/19 10:28:05;;;;;;;9.85;8.48;;;;;;;21.11;52.24;99949.13;4976807;28;20131;-60
2023/10/19 10:30:32;;;;;;;10.10;8.48;;;;;;;21.11;52.36;99948.28;4989397;28;20412;-57
2023/10/19 10:32:59;;;;;;;9.10;8.05;;;;;;;21.12;52.29;99940.03;4976591;28;20054;-57
2023/10/19 10:35:36;;;;;;;11.10;8.95;;;;;;;21.15;52.18;99920.88;4977406;28;20414;-57
2023/10/19 10:38:08;;;;;;;9.60;8.05;;;;;;;21.19;52.06;99926.75;4980659;28;20055;-58
2023/10/19 10:40:47;;;;;;;;;;;;;;;21.20;52.05;99942.72;4984814;28;20420;-60
2023/10/19 10:43:16;;;;;;;10.00;7.75;;;;;;;21.22;52.01;99953.31;4976381;28;19922;-60
2023/10/19 10:45:43;;;;;;;10.68;8.48;;;;;;;21.21;52.21;99959.72;4980733;28;20055;-59
2023/10/19 10:48:16;;;;;;;10.02;7.95;;;;;;;21.22;52.32;99939.88;4977703;28;20390;-60
2023/10/19 10:50:45;;;;;;;;;;;;;;;21.20;52.57;99944.59;4977025;28;20047;-56
2023/10/19 10:53:17;;;;;;;9.00;7.80;;;;;;;21.22;52.84;99948.78;4976374;28;19948;-57
2023/10/19 10:55:45;;;;;;;11.85;8.40;;;;;;;21.21;52.95;99943.56;4976615;28;20050;-57
2023/10/19 10:58:18;;;;;;;10.18;8.80;;;;;;;21.19;53.18;99935.69;4978152;28;20053;-57
2023/10/19 11:00:51;;;;;;;;;;;;;;;21.16;53.37;99929.78;4978520;28;20062;-57
2023/10/19 11:03:19;;;;;;;9.63;7.07;;;;;;;21.15;53.45;99918.19;4976676;28;19921;-57
2023/10/19 11:05:46;;;;;;;11.88;8.90;;;;;;;21.14;53.73;99913.78;4977596;28;20047;-56
2023/10/19 11:08:20;;;;;;;9.40;8.25;;;;;;;21.13;53.66;99925.56;4976201;28;20386;-57
2023/10/19 11:10:48;;;;;;;9.90;7.75;;;;;;;21.13;53.89;99922.03;4976164;28;20054;-56
2023/10/19 11:13:24;;;;;;;9.07;7.20;;;;;;;21.11;53.94;99922.19;4976158;28;20050;-56
2023/10/19 11:15:53;;;;;;;9.85;7.25;;;;;;;21.10;53.96;99912.41;4978936;28;20058;-56
2023/10/19 11:18:32;;;;;;;9.77;8.25;;;;;;;21.10;53.92;99900.81;4985751;28;20042;-57
2023/10/19 11:21:06;;;;;;;11.48;8.20;;;;;;;21.09;54.07;99899.97;4976620;28;20054;-57
2023/10/19 11:23:48;;;;;;;11.25;7.78;;;;;;;21.10;54.04;99911.59;4979746;28;20062;-57
2023/10/19 11:26:19;;;;;;;9.00;7.55;;;;;;;21.09;54.18;99912.59;4976805;28;20046;-57
2023/10/19 11:28:54;;;;;;;8.75;7.45;;;;;;;21.08;54.09;99911.75;4976137;28;20045;-57
2023/10/19 11:31:22;;;;;;;8.90;7.07;;;;;;;21.08;54.17;99909.06;4978447;28;20066;-57
2023/10/19 11:33:52;;;;;;;9.57;7.35;;;;;;;21.08;54.19;99895.63;4976967;28;20053;-57
2023/10/19 11:36:22;;;;;;;9.52;7.55;;;;;;;21.07;54.29;99893.94;4976107;28;20042;-57
2023/10/19 11:38:51;;;;;;;8.38;7.47;;;;;;;21.07;54.27;99893.94;4976002;28;20047;-57
2023/10/19 11:41:19;;;;;;;8.32;7.00;;;;;;;21.07;54.20;99869.72;4979281;28;20061;-57
2023/10/19 11:43:48;;;;;;;8.10;7.30;;;;;;;21.06;54.21;99861.78;4979250;28;20073;-57
2023/10/19 11:46:24;;;;;;;9.88;7.85;;;;;;;21.06;54.30;99873.41;4984151;28;20046;-57
2023/10/19 11:48:52;;;;;;;11.82;7.85;;;;;;;21.06;54.21;99859.94;4976788;28;20055;-57
2023/10/19 11:51:20;;;;;;;8.80;7.13;;;;;;;21.05;54.26;99863.66;4974929;28;20058;-57
2023/10/19 11:53:47;;;;;;;8.02;7.20;;;;;;;21.06;54.10;99870.69;4976222;28;20043;-56
2023/10/19 11:56:16;;;;;;;9.00;7.32;;;;;;;21.05;54.30;99858.25;4976617;28;20051;-57
2023/10/19 11:58:46;;;;;;;8.73;7.43;;;;;;;21.06;54.30;99867.19;4976455;28;20046;-56